sensor_id;sensor_type;location;lat;lon;timestamp;P1;durP1;ratioP1;P2;durP2;ratioP2
75218;SDS011;63801;49.414;19.474;2023-08-01T00:01:19;12.98;;;6.40;;
75218;SDS011;63801;49.414;19.474;2023-08-01T00:03:19;11.73;;;6.18;;
75218;SDS011;63801;49.414;19.474;2023-08-01T00:05:19;13.95;;;6.38;;
75218;SDS011;63801;49.414;19.474;2023-08-01T00:07:19;16.73;;;6.07;;
75218;SDS011;63801;49.414;19.474;2023-08-01T00:09:20;14.20;;;5.93;;
75218;SDS011;63801;49.414;19.474;2023-08-01T00:11:20;12.70;;;6.18;;
75218;SDS011;63801;49.414;19.474;2023-08-01T00:13:20;11.18;;;5.97;;
75218;SDS011;63801;49.414;19.474;2023-08-01T00:15:21;11.63;;;5.88;;
75218;SDS011;63801;49.414;19.474;2023-08-01T00:17:21;9.93;;;5.70;;
75218;SDS011;63801;49.414;19.474;2023-08-01T00:19:21;9.68;;;4.75;;
75218;SDS011;63801;49.414;19.474;2023-08-01T00:21:22;10.60;;;5.75;;
75218;SDS011;63801;49.414;19.474;2023-08-01T00:23:22;10.45;;;5.63;;
75218;SDS011;63801;49.414;19.474;2023-08-01T00:25:22;16.98;;;5.00;;
75218;SDS011;63801;49.414;19.474;2023-08-01T00:27:23;9.02;;;5.30;;
75218;SDS011;63801;49.414;19.474;2023-08-01T00:29:24;9.88;;;5.63;;
75218;SDS011;63801;49.414;19.474;2023-08-01T00:31:24;12.75;;;5.65;;
75218;SDS011;63801;49.414;19.474;2023-08-01T00:33:24;12.32;;;5.70;;
75218;SDS011;63801;49.414;19.474;2023-08-01T00:35:25;11.63;;;5.53;;
75218;SDS011;63801;49.414;19.474;2023-08-01T00:37:25;9.18;;;5.25;;
75218;SDS011;63801;49.414;19.474;2023-08-01T00:39:26;9.93;;;5.63;;
75218;SDS011;63801;49.414;19.474;2023-08-01T00:41:26;10.18;;;5.75;;
75218;SDS011;63801;49.414;19.474;2023-08-01T00:43:26;11.77;;;5.35;;
75218;SDS011;63801;49.414;19.474;2023-08-01T00:45:26;11.27;;;5.47;;
75218;SDS011;63801;49.414;19.474;2023-08-01T00:47:27;11.75;;;5.60;;
75218;SDS011;63801;49.414;19.474;2023-08-01T00:49:27;11.77;;;6.05;;
75218;SDS011;63801;49.414;19.474;2023-08-01T00:51:28;12.45;;;6.25;;
75218;SDS011;63801;49.414;19.474;2023-08-01T00:53:30;9.55;;;5.50;;
75218;SDS011;63801;49.414;19.474;2023-08-01T00:55:31;10.52;;;6.07;;
75218;SDS011;63801;49.414;19.474;2023-08-01T00:57:32;13.20;;;5.95;;
75218;SDS011;63801;49.414;19.474;2023-08-01T00:59:34;10.98;;;6.05;;
75218;SDS011;63801;49.414;19.474;2023-08-01T01:01:35;10.60;;;6.13;;
75218;SDS011;63801;49.414;19.474;2023-08-01T01:03:36;10.30;;;6.13;;
75218;SDS011;63801;49.414;19.474;2023-08-01T01:05:38;12.80;;;6.40;;
75218;SDS011;63801;49.414;19.474;2023-08-01T01:07:41;10.73;;;6.05;;
75218;SDS011;63801;49.414;19.474;2023-08-01T01:09:43;11.10;;;6.07;;
75218;SDS011;63801;49.414;19.474;2023-08-01T01:11:44;10.38;;;6.03;;
75218;SDS011;63801;49.414;19.474;2023-08-01T01:13:45;12.73;;;6.45;;
75218;SDS011;63801;49.414;19.474;2023-08-01T01:15:45;10.43;;;6.13;;
75218;SDS011;63801;49.414;19.474;2023-08-01T01:17:45;9.60;;;6.32;;
75218;SDS011;63801;49.414;19.474;2023-08-01T01:19:45;10.65;;;5.95;;
75218;SDS011;63801;49.414;19.474;2023-08-01T01:21:46;11.63;;;6.10;;
75218;SDS011;63801;49.414;19.474;2023-08-01T01:23:48;9.75;;;6.15;;
75218;SDS011;63801;49.414;19.474;2023-08-01T01:25:51;10.98;;;6.05;;
75218;SDS011;63801;49.414;19.474;2023-08-01T01:27:51;11.85;;;6.47;;
75218;SDS011;63801;49.414;19.474;2023-08-01T01:29:53;11.90;;;6.22;;
75218;SDS011;63801;49.414;19.474;2023-08-01T01:31:55;14.05;;;6.68;;
75218;SDS011;63801;49.414;19.474;2023-08-01T01:33:56;10.80;;;5.88;;
75218;SDS011;63801;49.414;19.474;2023-08-01T01:35:57;10.77;;;6.00;;
75218;SDS011;63801;49.414;19.474;2023-08-01T01:37:57;13.43;;;6.20;;
75218;SDS011;63801;49.414;19.474;2023-08-01T01:39:58;11.27;;;5.70;;
75218;SDS011;63801;49.414;19.474;2023-08-01T01:41:59;13.00;;;6.90;;
75218;SDS011;63801;49.414;19.474;2023-08-01T01:43:59;10.15;;;6.47;;
75218;SDS011;63801;49.414;19.474;2023-08-01T01:45:59;11.35;;;6.50;;
75218;SDS011;63801;49.414;19.474;2023-08-01T01:47:59;17.10;;;6.35;;
75218;SDS011;63801;49.414;19.474;2023-08-01T01:50:00;16.75;;;6.75;;
75218;SDS011;63801;49.414;19.474;2023-08-01T01:52:00;11.90;;;6.40;;
75218;SDS011;63801;49.414;19.474;2023-08-01T01:54:01;12.60;;;7.13;;
75218;SDS011;63801;49.414;19.474;2023-08-01T01:56:01;15.02;;;7.47;;
75218;SDS011;63801;49.414;19.474;2023-08-01T01:58:01;13.50;;;7.75;;
75218;SDS011;63801;49.414;19.474;2023-08-01T02:00:05;14.05;;;7.13;;
75218;SDS011;63801;49.414;19.474;2023-08-01T02:02:06;12.55;;;7.07;;
75218;SDS011;63801;49.414;19.474;2023-08-01T02:04:06;14.65;;;7.20;;
75218;SDS011;63801;49.414;19.474;2023-08-01T02:06:06;10.30;;;6.53;;
75218;SDS011;63801;49.414;19.474;2023-08-01T02:08:07;13.00;;;6.80;;
75218;SDS011;63801;49.414;19.474;2023-08-01T02:10:07;12.30;;;6.88;;
75218;SDS011;63801;49.414;19.474;2023-08-01T02:12:08;11.80;;;6.75;;
75218;SDS011;63801;49.414;19.474;2023-08-01T02:14:09;11.57;;;7.13;;
75218;SDS011;63801;49.414;19.474;2023-08-01T02:16:10;17.77;;;7.18;;
75218;SDS011;63801;49.414;19.474;2023-08-01T02:18:10;13.52;;;7.00;;
75218;SDS011;63801;49.414;19.474;2023-08-01T02:20:11;14.85;;;6.50;;
75218;SDS011;63801;49.414;19.474;2023-08-01T02:22:11;12.88;;;7.60;;
75218;SDS011;63801;49.414;19.474;2023-08-01T02:24:12;15.35;;;7.18;;
75218;SDS011;63801;49.414;19.474;2023-08-01T02:26:12;18.13;;;7.78;;
75218;SDS011;63801;49.414;19.474;2023-08-01T02:28:12;17.67;;;7.50;;
75218;SDS011;63801;49.414;19.474;2023-08-01T02:30:13;13.43;;;6.72;;
75218;SDS011;63801;49.414;19.474;2023-08-01T02:32:13;12.98;;;6.40;;
75218;SDS011;63801;49.414;19.474;2023-08-01T02:34:13;14.00;;;5.90;;
75218;SDS011;63801;49.414;19.474;2023-08-01T02:36:14;13.93;;;7.38;;
75218;SDS011;63801;49.414;19.474;2023-08-01T02:38:14;14.32;;;7.30;;
75218;SDS011;63801;49.414;19.474;2023-08-01T02:40:14;12.05;;;7.68;;
75218;SDS011;63801;49.414;19.474;2023-08-01T02:42:15;15.68;;;7.43;;
75218;SDS011;63801;49.414;19.474;2023-08-01T02:44:15;16.25;;;7.80;;
75218;SDS011;63801;49.414;19.474;2023-08-01T02:46:15;13.45;;;8.13;;
75218;SDS011;63801;49.414;19.474;2023-08-01T02:48:16;15.30;;;8.20;;
75218;SDS011;63801;49.414;19.474;2023-08-01T02:50:16;15.10;;;7.82;;
75218;SDS011;63801;49.414;19.474;2023-08-01T02:52:16;16.75;;;8.05;;
75218;SDS011;63801;49.414;19.474;2023-08-01T02:54:17;16.77;;;8.48;;
75218;SDS011;63801;49.414;19.474;2023-08-01T02:56:17;15.05;;;8.07;;
75218;SDS011;63801;49.414;19.474;2023-08-01T02:58:17;18.27;;;8.27;;
75218;SDS011;63801;49.414;19.474;2023-08-01T03:00:18;15.52;;;8.05;;
75218;SDS011;63801;49.414;19.474;2023-08-01T03:02:18;18.70;;;7.50;;
75218;SDS011;63801;49.414;19.474;2023-08-01T03:04:18;14.77;;;7.82;;
75218;SDS011;63801;49.414;19.474;2023-08-01T03:06:18;15.32;;;7.40;;
75218;SDS011;63801;49.414;19.474;2023-08-01T03:08:19;14.18;;;7.90;;
75218;SDS011;63801;49.414;19.474;2023-08-01T03:10:19;14.40;;;7.75;;
75218;SDS011;63801;49.414;19.474;2023-08-01T03:12:19;19.58;;;8.32;;
75218;SDS011;63801;49.414;19.474;2023-08-01T03:14:20;15.35;;;7.65;;
75218;SDS011;63801;49.414;19.474;2023-08-01T03:16:20;13.32;;;7.35;;
75218;SDS011;63801;49.414;19.474;2023-08-01T03:18:20;14.88;;;7.63;;
75218;SDS011;63801;49.414;19.474;2023-08-01T03:20:21;16.75;;;7.47;;
75218;SDS011;63801;49.414;19.474;2023-08-01T03:22:22;16.58;;;7.97;;
75218;SDS011;63801;49.414;19.474;2023-08-01T03:24:23;19.20;;;8.10;;
75218;SDS011;63801;49.414;19.474;2023-08-01T03:26:23;14.80;;;8.65;;
75218;SDS011;63801;49.414;19.474;2023-08-01T03:28:24;17.67;;;8.75;;
75218;SDS011;63801;49.414;19.474;2023-08-01T03:30:26;18.25;;;8.13;;
75218;SDS011;63801;49.414;19.474;2023-08-01T03:32:26;17.77;;;8.70;;
75218;SDS011;63801;49.414;19.474;2023-08-01T03:34:27;17.92;;;8.27;;
75218;SDS011;63801;49.414;19.474;2023-08-01T03:36:27;16.23;;;8.73;;
75218;SDS011;63801;49.414;19.474;2023-08-01T03:38:28;16.70;;;8.57;;
75218;SDS011;63801;49.414;19.474;2023-08-01T03:40:28;21.20;;;7.50;;
75218;SDS011;63801;49.414;19.474;2023-08-01T03:42:28;14.38;;;7.35;;
75218;SDS011;63801;49.414;19.474;2023-08-01T03:44:29;16.75;;;7.93;;
75218;SDS011;63801;49.414;19.474;2023-08-01T03:46:29;13.07;;;7.50;;
75218;SDS011;63801;49.414;19.474;2023-08-01T03:48:30;17.05;;;7.43;;
75218;SDS011;63801;49.414;19.474;2023-08-01T03:50:30;15.15;;;7.35;;
75218;SDS011;63801;49.414;19.474;2023-08-01T03:52:31;24.75;;;8.07;;
75218;SDS011;63801;49.414;19.474;2023-08-01T03:54:31;26.10;;;10.68;;
75218;SDS011;63801;49.414;19.474;2023-08-01T03:56:31;45.65;;;10.95;;
75218;SDS011;63801;49.414;19.474;2023-08-01T03:58:32;45.15;;;11.48;;
75218;SDS011;63801;49.414;19.474;2023-08-01T04:00:32;53.53;;;12.45;;
75218;SDS011;63801;49.414;19.474;2023-08-01T04:02:33;37.22;;;13.52;;
75218;SDS011;63801;49.414;19.474;2023-08-01T04:04:34;29.77;;;12.23;;
75218;SDS011;63801;49.414;19.474;2023-08-01T04:06:34;24.02;;;11.77;;
75218;SDS011;63801;49.414;19.474;2023-08-01T04:08:34;24.48;;;11.55;;
75218;SDS011;63801;49.414;19.474;2023-08-01T04:10:35;23.13;;;11.85;;
75218;SDS011;63801;49.414;19.474;2023-08-01T04:12:35;27.60;;;12.05;;
75218;SDS011;63801;49.414;19.474;2023-08-01T04:14:35;29.98;;;11.52;;
75218;SDS011;63801;49.414;19.474;2023-08-01T04:16:35;25.23;;;12.07;;
75218;SDS011;63801;49.414;19.474;2023-08-01T04:18:36;30.95;;;11.15;;
75218;SDS011;63801;49.414;19.474;2023-08-01T04:20:36;31.45;;;12.35;;
75218;SDS011;63801;49.414;19.474;2023-08-01T04:22:36;23.17;;;11.75;;
75218;SDS011;63801;49.414;19.474;2023-08-01T04:24:37;22.92;;;11.35;;
75218;SDS011;63801;49.414;19.474;2023-08-01T04:26:37;21.83;;;10.90;;
75218;SDS011;63801;49.414;19.474;2023-08-01T04:28:37;20.45;;;11.07;;
75218;SDS011;63801;49.414;19.474;2023-08-01T04:30:38;17.25;;;10.10;;
75218;SDS011;63801;49.414;19.474;2023-08-01T04:32:38;13.75;;;8.00;;
75218;SDS011;63801;49.414;19.474;2023-08-01T04:34:38;13.73;;;8.13;;
75218;SDS011;63801;49.414;19.474;2023-08-01T04:36:39;14.07;;;7.97;;
75218;SDS011;63801;49.414;19.474;2023-08-01T04:38:39;11.15;;;6.97;;
75218;SDS011;63801;49.414;19.474;2023-08-01T04:40:39;14.60;;;7.88;;
75218;SDS011;63801;49.414;19.474;2023-08-01T04:42:40;13.07;;;7.78;;
75218;SDS011;63801;49.414;19.474;2023-08-01T04:44:40;14.88;;;7.20;;
75218;SDS011;63801;49.414;19.474;2023-08-01T04:46:41;14.93;;;8.02;;
75218;SDS011;63801;49.414;19.474;2023-08-01T04:48:41;14.55;;;8.10;;
75218;SDS011;63801;49.414;19.474;2023-08-01T04:50:42;12.98;;;7.57;;
75218;SDS011;63801;49.414;19.474;2023-08-01T04:52:42;15.98;;;7.75;;
75218;SDS011;63801;49.414;19.474;2023-08-01T04:54:42;13.90;;;7.07;;
75218;SDS011;63801;49.414;19.474;2023-08-01T04:56:43;12.40;;;6.70;;
75218;SDS011;63801;49.414;19.474;2023-08-01T04:58:43;15.00;;;7.43;;
75218;SDS011;63801;49.414;19.474;2023-08-01T05:00:43;14.55;;;8.20;;
75218;SDS011;63801;49.414;19.474;2023-08-01T05:02:44;12.65;;;6.53;;
75218;SDS011;63801;49.414;19.474;2023-08-01T05:04:44;15.02;;;7.10;;
75218;SDS011;63801;49.414;19.474;2023-08-01T05:06:44;13.13;;;6.75;;
75218;SDS011;63801;49.414;19.474;2023-08-01T05:08:45;14.05;;;6.43;;
75218;SDS011;63801;49.414;19.474;2023-08-01T05:10:45;10.25;;;6.45;;
75218;SDS011;63801;49.414;19.474;2023-08-01T05:12:45;16.90;;;7.22;;
75218;SDS011;63801;49.414;19.474;2023-08-01T05:14:46;15.60;;;6.53;;
75218;SDS011;63801;49.414;19.474;2023-08-01T05:16:46;14.70;;;6.63;;
75218;SDS011;63801;49.414;19.474;2023-08-01T05:18:46;12.27;;;6.40;;
75218;SDS011;63801;49.414;19.474;2023-08-01T05:20:47;13.05;;;6.85;;
75218;SDS011;63801;49.414;19.474;2023-08-01T05:22:47;16.38;;;6.43;;
75218;SDS011;63801;49.414;19.474;2023-08-01T05:24:47;14.10;;;6.53;;
75218;SDS011;63801;49.414;19.474;2023-08-01T05:26:47;15.13;;;6.47;;
75218;SDS011;63801;49.414;19.474;2023-08-01T05:28:48;12.98;;;6.13;;
75218;SDS011;63801;49.414;19.474;2023-08-01T05:30:48;15.45;;;6.25;;
75218;SDS011;63801;49.414;19.474;2023-08-01T05:32:48;12.60;;;5.85;;
75218;SDS011;63801;49.414;19.474;2023-08-01T05:34:49;15.23;;;6.72;;
75218;SDS011;63801;49.414;19.474;2023-08-01T05:36:49;12.05;;;6.22;;
75218;SDS011;63801;49.414;19.474;2023-08-01T05:38:50;15.27;;;6.80;;
75218;SDS011;63801;49.414;19.474;2023-08-01T05:40:50;12.80;;;6.78;;
75218;SDS011;63801;49.414;19.474;2023-08-01T05:42:51;12.20;;;6.30;;
75218;SDS011;63801;49.414;19.474;2023-08-01T05:44:51;12.35;;;6.38;;
75218;SDS011;63801;49.414;19.474;2023-08-01T05:46:51;11.43;;;6.60;;
75218;SDS011;63801;49.414;19.474;2023-08-01T05:48:52;21.05;;;7.00;;
75218;SDS011;63801;49.414;19.474;2023-08-01T05:50:52;15.38;;;6.78;;
75218;SDS011;63801;49.414;19.474;2023-08-01T05:54:55;12.63;;;6.37;;
75218;SDS011;63801;49.414;19.474;2023-08-01T05:56:55;18.52;;;7.07;;
75218;SDS011;63801;49.414;19.474;2023-08-01T05:58:56;15.05;;;7.05;;
75218;SDS011;63801;49.414;19.474;2023-08-01T06:00:56;12.20;;;6.78;;
75218;SDS011;63801;49.414;19.474;2023-08-01T06:02:57;15.45;;;6.75;;
75218;SDS011;63801;49.414;19.474;2023-08-01T06:04:58;18.35;;;7.10;;
75218;SDS011;63801;49.414;19.474;2023-08-01T06:06:58;16.25;;;6.53;;
75218;SDS011;63801;49.414;19.474;2023-08-01T06:08:59;14.40;;;6.80;;
75218;SDS011;63801;49.414;19.474;2023-08-01T06:10:59;16.88;;;6.75;;
75218;SDS011;63801;49.414;19.474;2023-08-01T06:12:59;15.48;;;7.65;;
75218;SDS011;63801;49.414;19.474;2023-08-01T06:15:00;16.83;;;6.75;;
75218;SDS011;63801;49.414;19.474;2023-08-01T06:17:00;13.35;;;6.57;;
75218;SDS011;63801;49.414;19.474;2023-08-01T06:19:00;12.98;;;6.07;;
75218;SDS011;63801;49.414;19.474;2023-08-01T06:21:01;13.20;;;6.60;;
75218;SDS011;63801;49.414;19.474;2023-08-01T06:23:02;18.10;;;7.03;;
75218;SDS011;63801;49.414;19.474;2023-08-01T06:25:03;10.75;;;5.30;;
75218;SDS011;63801;49.414;19.474;2023-08-01T06:27:03;11.38;;;6.38;;
75218;SDS011;63801;49.414;19.474;2023-08-01T06:29:05;6.95;;;3.67;;
75218;SDS011;63801;49.414;19.474;2023-08-01T06:31:05;7.95;;;3.20;;
75218;SDS011;63801;49.414;19.474;2023-08-01T06:33:06;8.13;;;3.00;;
75218;SDS011;63801;49.414;19.474;2023-08-01T06:35:06;5.05;;;2.88;;
75218;SDS011;63801;49.414;19.474;2023-08-01T06:37:07;5.18;;;2.97;;
75218;SDS011;63801;49.414;19.474;2023-08-01T06:39:07;4.90;;;3.05;;
75218;SDS011;63801;49.414;19.474;2023-08-01T06:41:08;8.15;;;3.00;;
75218;SDS011;63801;49.414;19.474;2023-08-01T06:43:08;4.70;;;2.75;;
75218;SDS011;63801;49.414;19.474;2023-08-01T06:45:09;6.68;;;2.65;;
75218;SDS011;63801;49.414;19.474;2023-08-01T06:47:09;6.10;;;2.92;;
75218;SDS011;63801;49.414;19.474;2023-08-01T06:49:09;6.22;;;2.78;;
75218;SDS011;63801;49.414;19.474;2023-08-01T06:51:10;4.57;;;2.80;;
75218;SDS011;63801;49.414;19.474;2023-08-01T06:53:11;7.43;;;2.90;;
75218;SDS011;63801;49.414;19.474;2023-08-01T06:55:11;8.98;;;2.95;;
75218;SDS011;63801;49.414;19.474;2023-08-01T06:57:12;5.18;;;3.10;;
75218;SDS011;63801;49.414;19.474;2023-08-01T06:59:12;8.18;;;3.22;;
75218;SDS011;63801;49.414;19.474;2023-08-01T07:01:14;8.85;;;2.97;;
75218;SDS011;63801;49.414;19.474;2023-08-01T07:03:14;5.10;;;2.60;;
75218;SDS011;63801;49.414;19.474;2023-08-01T07:05:14;6.47;;;2.58;;
75218;SDS011;63801;49.414;19.474;2023-08-01T07:07:15;5.63;;;2.45;;
75218;SDS011;63801;49.414;19.474;2023-08-01T07:09:15;7.03;;;2.70;;
75218;SDS011;63801;49.414;19.474;2023-08-01T07:11:15;5.65;;;2.97;;
75218;SDS011;63801;49.414;19.474;2023-08-01T07:13:16;4.97;;;2.45;;
75218;SDS011;63801;49.414;19.474;2023-08-01T07:15:16;4.07;;;2.63;;
75218;SDS011;63801;49.414;19.474;2023-08-01T07:17:17;5.03;;;2.65;;
75218;SDS011;63801;49.414;19.474;2023-08-01T07:19:17;4.18;;;2.60;;
75218;SDS011;63801;49.414;19.474;2023-08-01T07:21:17;5.15;;;2.88;;
75218;SDS011;63801;49.414;19.474;2023-08-01T07:23:18;5.90;;;2.70;;
75218;SDS011;63801;49.414;19.474;2023-08-01T07:25:18;9.90;;;2.60;;
75218;SDS011;63801;49.414;19.474;2023-08-01T07:27:19;5.03;;;3.05;;
75218;SDS011;63801;49.414;19.474;2023-08-01T07:29:19;6.22;;;2.60;;
75218;SDS011;63801;49.414;19.474;2023-08-01T07:31:20;6.75;;;2.60;;
75218;SDS011;63801;49.414;19.474;2023-08-01T07:33:20;5.03;;;2.50;;
75218;SDS011;63801;49.414;19.474;2023-08-01T07:35:20;3.58;;;2.38;;
75218;SDS011;63801;49.414;19.474;2023-08-01T07:37:21;4.78;;;2.70;;
75218;SDS011;63801;49.414;19.474;2023-08-01T07:39:21;6.05;;;2.92;;
75218;SDS011;63801;49.414;19.474;2023-08-01T07:41:21;8.18;;;3.13;;
75218;SDS011;63801;49.414;19.474;2023-08-01T07:43:22;6.70;;;3.05;;
75218;SDS011;63801;49.414;19.474;2023-08-01T07:45:23;11.15;;;2.88;;
75218;SDS011;63801;49.414;19.474;2023-08-01T07:47:23;4.43;;;2.45;;
75218;SDS011;63801;49.414;19.474;2023-08-01T07:49:24;7.18;;;2.92;;
75218;SDS011;63801;49.414;19.474;2023-08-01T07:51:24;4.22;;;2.90;;
75218;SDS011;63801;49.414;19.474;2023-08-01T07:53:25;5.20;;;2.80;;
75218;SDS011;63801;49.414;19.474;2023-08-01T07:55:25;4.95;;;2.70;;
75218;SDS011;63801;49.414;19.474;2023-08-01T07:57:26;5.07;;;2.90;;
75218;SDS011;63801;49.414;19.474;2023-08-01T07:59:26;6.45;;;2.65;;
75218;SDS011;63801;49.414;19.474;2023-08-01T08:01:26;7.03;;;3.00;;
75218;SDS011;63801;49.414;19.474;2023-08-01T08:03:27;5.03;;;2.70;;
75218;SDS011;63801;49.414;19.474;2023-08-01T08:05:27;5.63;;;2.60;;
75218;SDS011;63801;49.414;19.474;2023-08-01T08:07:27;4.80;;;2.50;;
75218;SDS011;63801;49.414;19.474;2023-08-01T08:09:28;5.18;;;2.50;;
75218;SDS011;63801;49.414;19.474;2023-08-01T08:11:28;8.13;;;3.08;;
75218;SDS011;63801;49.414;19.474;2023-08-01T08:13:28;6.00;;;2.22;;
75218;SDS011;63801;49.414;19.474;2023-08-01T08:15:29;5.45;;;2.60;;
75218;SDS011;63801;49.414;19.474;2023-08-01T08:17:33;10.43;;;3.00;;
75218;SDS011;63801;49.414;19.474;2023-08-01T08:19:33;3.63;;;2.22;;
75218;SDS011;63801;49.414;19.474;2023-08-01T08:21:34;6.70;;;2.92;;
75218;SDS011;63801;49.414;19.474;2023-08-01T08:23:34;4.28;;;2.45;;
75218;SDS011;63801;49.414;19.474;2023-08-01T08:25:34;4.22;;;2.33;;
75218;SDS011;63801;49.414;19.474;2023-08-01T08:27:35;5.72;;;2.10;;
75218;SDS011;63801;49.414;19.474;2023-08-01T08:29:35;4.82;;;2.75;;
75218;SDS011;63801;49.414;19.474;2023-08-01T08:31:36;4.72;;;2.55;;
75218;SDS011;63801;49.414;19.474;2023-08-01T08:33:36;6.53;;;2.72;;
75218;SDS011;63801;49.414;19.474;2023-08-01T08:35:36;4.43;;;2.45;;
75218;SDS011;63801;49.414;19.474;2023-08-01T08:37:37;6.88;;;2.47;;
75218;SDS011;63801;49.414;19.474;2023-08-01T08:39:37;5.60;;;2.30;;
75218;SDS011;63801;49.414;19.474;2023-08-01T08:41:38;6.40;;;2.90;;
75218;SDS011;63801;49.414;19.474;2023-08-01T08:43:45;3.65;;;2.38;;
75218;SDS011;63801;49.414;19.474;2023-08-01T08:45:47;4.90;;;2.35;;
75218;SDS011;63801;49.414;19.474;2023-08-01T08:47:52;6.97;;;2.60;;
75218;SDS011;63801;49.414;19.474;2023-08-01T08:49:55;4.80;;;2.60;;
75218;SDS011;63801;49.414;19.474;2023-08-01T08:51:57;5.82;;;2.63;;
75218;SDS011;63801;49.414;19.474;2023-08-01T08:53:58;5.95;;;2.75;;
75218;SDS011;63801;49.414;19.474;2023-08-01T08:55:59;4.78;;;2.60;;
75218;SDS011;63801;49.414;19.474;2023-08-01T08:58:00;4.05;;;2.63;;
75218;SDS011;63801;49.414;19.474;2023-08-01T09:00:02;6.97;;;2.67;;
75218;SDS011;63801;49.414;19.474;2023-08-01T09:02:04;5.22;;;2.50;;
75218;SDS011;63801;49.414;19.474;2023-08-01T09:04:05;8.18;;;2.95;;
75218;SDS011;63801;49.414;19.474;2023-08-01T09:08:16;6.07;;;2.90;;
75218;SDS011;63801;49.414;19.474;2023-08-01T09:10:19;6.68;;;2.63;;
75218;SDS011;63801;49.414;19.474;2023-08-01T09:12:20;4.60;;;2.42;;
75218;SDS011;63801;49.414;19.474;2023-08-01T09:14:21;9.00;;;3.40;;
75218;SDS011;63801;49.414;19.474;2023-08-01T09:16:22;5.43;;;3.35;;
75218;SDS011;63801;49.414;19.474;2023-08-01T09:18:22;4.95;;;2.92;;
75218;SDS011;63801;49.414;19.474;2023-08-01T09:20:22;6.63;;;3.38;;
75218;SDS011;63801;49.414;19.474;2023-08-01T09:22:23;5.68;;;3.20;;
75218;SDS011;63801;49.414;19.474;2023-08-01T09:24:23;6.15;;;3.00;;
75218;SDS011;63801;49.414;19.474;2023-08-01T09:26:23;6.85;;;3.08;;
75218;SDS011;63801;49.414;19.474;2023-08-01T09:28:24;5.70;;;2.78;;
75218;SDS011;63801;49.414;19.474;2023-08-01T09:30:24;6.65;;;2.90;;
75218;SDS011;63801;49.414;19.474;2023-08-01T09:32:25;6.45;;;3.03;;
75218;SDS011;63801;49.414;19.474;2023-08-01T09:34:26;5.72;;;2.97;;
75218;SDS011;63801;49.414;19.474;2023-08-01T09:36:27;5.68;;;3.08;;
75218;SDS011;63801;49.414;19.474;2023-08-01T09:38:27;7.53;;;3.60;;
75218;SDS011;63801;49.414;19.474;2023-08-01T09:40:37;5.18;;;2.88;;
75218;SDS011;63801;49.414;19.474;2023-08-01T09:42:39;5.82;;;3.28;;
75218;SDS011;63801;49.414;19.474;2023-08-01T09:44:44;6.50;;;3.42;;
75218;SDS011;63801;49.414;19.474;2023-08-01T09:46:59;8.25;;;3.05;;
75218;SDS011;63801;49.414;19.474;2023-08-01T09:49:07;6.68;;;3.28;;
75218;SDS011;63801;49.414;19.474;2023-08-01T09:51:13;5.65;;;3.40;;
75218;SDS011;63801;49.414;19.474;2023-08-01T09:53:15;6.88;;;3.40;;
75218;SDS011;63801;49.414;19.474;2023-08-01T09:55:15;6.63;;;3.10;;
75218;SDS011;63801;49.414;19.474;2023-08-01T09:57:15;5.82;;;3.03;;
75218;SDS011;63801;49.414;19.474;2023-08-01T09:59:23;7.70;;;3.58;;
75218;SDS011;63801;49.414;19.474;2023-08-01T10:01:25;6.82;;;3.20;;
75218;SDS011;63801;49.414;19.474;2023-08-01T10:03:27;6.90;;;3.45;;
75218;SDS011;63801;49.414;19.474;2023-08-01T10:07:30;4.63;;;2.78;;
75218;SDS011;63801;49.414;19.474;2023-08-01T10:09:32;6.05;;;2.85;;
75218;SDS011;63801;49.414;19.474;2023-08-01T10:11:35;7.03;;;3.20;;
75218;SDS011;63801;49.414;19.474;2023-08-01T10:13:37;8.00;;;3.58;;
75218;SDS011;63801;49.414;19.474;2023-08-01T10:15:38;5.53;;;3.30;;
75218;SDS011;63801;49.414;19.474;2023-08-01T10:17:39;4.65;;;2.95;;
75218;SDS011;63801;49.414;19.474;2023-08-01T10:19:41;9.15;;;3.30;;
75218;SDS011;63801;49.414;19.474;2023-08-01T10:21:42;10.60;;;3.80;;
75218;SDS011;63801;49.414;19.474;2023-08-01T10:23:44;6.20;;;3.40;;
75218;SDS011;63801;49.414;19.474;2023-08-01T10:25:45;8.38;;;3.55;;
75218;SDS011;63801;49.414;19.474;2023-08-01T10:27:57;6.50;;;3.67;;
75218;SDS011;63801;49.414;19.474;2023-08-01T10:30:06;7.07;;;3.78;;
75218;SDS011;63801;49.414;19.474;2023-08-01T10:32:08;7.03;;;3.97;;
75218;SDS011;63801;49.414;19.474;2023-08-01T10:34:14;8.07;;;3.72;;
75218;SDS011;63801;49.414;19.474;2023-08-01T10:38:14;8.93;;;3.85;;
75218;SDS011;63801;49.414;19.474;2023-08-01T10:40:15;7.70;;;3.63;;
75218;SDS011;63801;49.414;19.474;2023-08-01T10:42:15;6.05;;;3.53;;
75218;SDS011;63801;49.414;19.474;2023-08-01T10:44:16;6.50;;;4.18;;
75218;SDS011;63801;49.414;19.474;2023-08-01T10:46:16;6.95;;;3.88;;
75218;SDS011;63801;49.414;19.474;2023-08-01T10:48:17;7.60;;;4.10;;
75218;SDS011;63801;49.414;19.474;2023-08-01T10:50:17;6.65;;;3.95;;
75218;SDS011;63801;49.414;19.474;2023-08-01T10:52:23;7.68;;;4.25;;
75218;SDS011;63801;49.414;19.474;2023-08-01T10:54:27;7.65;;;4.00;;
75218;SDS011;63801;49.414;19.474;2023-08-01T10:56:27;7.82;;;4.22;;
75218;SDS011;63801;49.414;19.474;2023-08-01T10:58:28;6.13;;;3.83;;
75218;SDS011;63801;49.414;19.474;2023-08-01T11:00:28;8.02;;;3.70;;
75218;SDS011;63801;49.414;19.474;2023-08-01T11:02:29;6.45;;;3.22;;
75218;SDS011;63801;49.414;19.474;2023-08-01T11:04:30;5.40;;;3.50;;
75218;SDS011;63801;49.414;19.474;2023-08-01T11:06:30;7.63;;;3.67;;
75218;SDS011;63801;49.414;19.474;2023-08-01T11:08:37;4.82;;;3.03;;
75218;SDS011;63801;49.414;19.474;2023-08-01T11:10:38;5.40;;;3.40;;
75218;SDS011;63801;49.414;19.474;2023-08-01T11:12:39;4.75;;;2.78;;
75218;SDS011;63801;49.414;19.474;2023-08-01T11:14:41;4.22;;;2.70;;
75218;SDS011;63801;49.414;19.474;2023-08-01T11:16:42;3.70;;;2.25;;
75218;SDS011;63801;49.414;19.474;2023-08-01T11:18:43;4.35;;;2.40;;
75218;SDS011;63801;49.414;19.474;2023-08-01T11:20:44;4.50;;;2.10;;
75218;SDS011;63801;49.414;19.474;2023-08-01T11:22:55;3.63;;;2.38;;
75218;SDS011;63801;49.414;19.474;2023-08-01T11:24:57;4.65;;;2.67;;
75218;SDS011;63801;49.414;19.474;2023-08-01T11:26:58;4.75;;;2.60;;
75218;SDS011;63801;49.414;19.474;2023-08-01T11:29:04;4.88;;;2.80;;
75218;SDS011;63801;49.414;19.474;2023-08-01T11:31:11;6.72;;;3.22;;
75218;SDS011;63801;49.414;19.474;2023-08-01T11:35:17;4.28;;;2.58;;
75218;SDS011;63801;49.414;19.474;2023-08-01T11:37:18;6.78;;;3.50;;
75218;SDS011;63801;49.414;19.474;2023-08-01T11:39:20;5.25;;;3.00;;
75218;SDS011;63801;49.414;19.474;2023-08-01T11:41:22;6.55;;;3.00;;
75218;SDS011;63801;49.414;19.474;2023-08-01T11:43:23;7.20;;;3.28;;
75218;SDS011;63801;49.414;19.474;2023-08-01T11:45:24;4.90;;;2.80;;
75218;SDS011;63801;49.414;19.474;2023-08-01T11:47:25;4.95;;;3.10;;
75218;SDS011;63801;49.414;19.474;2023-08-01T11:49:26;6.38;;;3.17;;
75218;SDS011;63801;49.414;19.474;2023-08-01T11:51:27;5.63;;;3.08;;
75218;SDS011;63801;49.414;19.474;2023-08-01T11:53:28;6.90;;;3.15;;
75218;SDS011;63801;49.414;19.474;2023-08-01T11:55:29;5.57;;;3.13;;
75218;SDS011;63801;49.414;19.474;2023-08-01T11:57:29;4.95;;;3.13;;
75218;SDS011;63801;49.414;19.474;2023-08-01T11:59:30;5.80;;;3.10;;
75218;SDS011;63801;49.414;19.474;2023-08-01T12:01:30;5.03;;;3.10;;